Time;durP1;ratioP1;P1;durP2;ratioP2;P2;SDS_P1;SDS_P2;PMS_P1;PMS_P2;Temp;Humidity;BMP_temperature;BMP_pressure;BME280_temperature;BME280_humidity;BME280_pressure;Samples;Min_cycle;Max_cycle;Signal;HPM_P1;HPM_P2
2021/12/20 00:00:20;;;;;;;6.17;2.00;;;;;;;3.89;61.31;100020.77;1647648;86;26112;-67
2021/12/20 00:02:58;;;;;;;4.25;2.40;;;;;;;3.84;61.74;100024.23;1647242;86;25685;-67
2021/12/20 00:05:27;;;;;;;3.27;2.00;;;;;;;3.78;61.79;100022.86;1648899;86;28130;-65
2021/12/20 00:07:54;;;;;;;4.62;2.30;;;;;;;3.69;63.02;100028.84;1650129;86;25814;-66
2021/12/20 00:10:22;;;;;;;3.35;1.90;;;;;;;3.63;64.10;100043.92;1683246;84;25777;-66
2021/12/20 00:12:52;;;;;;;2.80;1.92;;;;;;;3.58;64.99;100046.91;1659873;85;26727;-65
2021/12/20 00:15:19;;;;;;;3.22;2.08;;;;;;;3.56;65.55;100035.52;1645888;86;25927;-66
2021/12/20 00:17:47;;;;;;;2.12;1.65;;;;;;;3.51;66.60;100039.00;1648216;85;27638;-65
2021/12/20 00:20:13;;;;;;;2.05;1.60;;;;;;;3.44;67.40;100031.47;1681804;84;25894;-64
2021/12/20 00:22:41;;;;;;;2.30;1.92;;;;;;;3.42;67.42;100033.37;1657628;86;25530;-67
2021/12/20 00:25:10;;;;;;;2.58;2.02;;;;;;;3.38;68.42;100035.86;1664292;86;26120;-67
2021/12/20 00:27:39;;;;;;;3.22;1.85;;;;;;;3.36;68.40;100039.59;1662310;86;25850;-67
2021/12/20 00:30:10;;;;;;;4.78;2.33;;;;;;;3.31;68.90;100049.22;1664102;86;27507;-66
2021/12/20 00:32:42;;;;;;;5.53;2.40;;;;;;;3.28;69.26;100046.30;1636340;86;25787;-66
2021/12/20 00:35:09;;;;;;;6.92;2.35;;;;;;;3.25;69.38;100048.33;1639153;86;25851;-67
2021/12/20 00:40:22;;;;;;;3.72;2.10;;;;;;;3.18;70.08;100072.31;1643022;86;25807;-67
2021/12/20 00:42:54;;;;;;;2.60;1.80;;;;;;;3.13;70.68;100077.45;1635742;86;27496;-67
2021/12/20 00:45:25;;;;;;;3.17;1.98;;;;;;;3.18;70.40;100080.29;1633916;86;25912;-67
2021/12/20 00:47:52;;;;;;;3.02;1.92;;;;;;;3.19;70.65;100074.86;1662241;86;25742;-67
2021/12/20 00:50:23;;;;;;;6.05;1.40;;;;;;;3.21;70.84;100066.30;1641336;86;26126;-66
2021/12/20 00:52:51;;;;;;;8.23;1.77;;;;;;;3.21;71.61;100072.95;1647796;84;25868;-67
2021/12/20 00:55:21;;;;;;;3.42;1.40;;;;;;;3.21;72.03;100088.03;1657138;85;28175;-67
2021/12/20 00:57:52;;;;;;;2.85;1.50;;;;;;;3.20;72.90;100090.31;1660115;86;25890;-65
2021/12/20 01:00:24;;;;;;;2.05;1.50;;;;;;;3.20;72.75;100095.63;1658940;86;25788;-65
2021/12/20 01:02:52;;;;;;;1.15;1.00;;;;;;;3.17;73.77;100101.17;1622953;86;26099;-65
2021/12/20 01:05:24;;;;;;;3.70;1.25;;;;;;;3.12;74.69;100096.17;1647505;86;25739;-67
2021/12/20 01:08:00;;;;;;;1.42;1.20;;;;;;;3.06;75.10;100107.20;1646021;86;27494;-65
2021/12/20 01:10:28;;;;;;;2.22;1.00;;;;;;;3.00;75.48;100100.52;1633922;86;25810;-66
2021/12/20 01:12:59;;;;;;;1.90;1.00;;;;;;;2.95;75.59;100109.27;1634619;86;26404;-66
2021/12/20 01:15:37;;;;;;;2.42;1.10;;;;;;;2.95;75.64;100109.27;1632059;87;26403;-64
2021/12/20 01:18:07;;;;;;;2.45;0.90;;;;;;;2.90;75.92;100113.56;1632261;85;25924;-66
2021/12/20 01:20:36;;;;;;;1.27;0.82;;;;;;;2.91;75.55;100109.11;1633626;86;29656;-64
2021/12/20 01:23:05;;;;;;;1.20;0.80;;;;;;;2.89;75.52;100105.70;1635473;86;25729;-66
2021/12/20 01:25:33;;;;;;;1.35;1.02;;;;;;;2.92;75.38;100112.12;1632633;86;25818;-65
2021/12/20 01:28:02;;;;;;;0.93;0.80;;;;;;;2.90;75.62;100110.06;1635925;85;26707;-66
2021/12/20 01:30:29;;;;;;;0.45;0.40;;;;;;;2.90;75.23;100117.55;1635989;86;25844;-66
2021/12/20 01:32:56;;;;;;;1.50;0.72;;;;;;;2.90;75.49;100120.69;1635239;86;28209;-65
2021/12/20 01:35:27;;;;;;;0.42;0.40;;;;;;;2.92;75.71;100119.63;1632772;86;25348;-66
2021/12/20 01:37:55;;;;;;;1.67;1.20;;;;;;;2.89;75.47;100124.30;1632230;87;25838;-66
2021/12/20 01:40:24;;;;;;;1.20;0.85;;;;;;;2.82;75.50;100123.84;1636390;87;26827;-66
2021/12/20 01:42:57;;;;;;;0.75;0.65;;;;;;;2.75;76.24;100133.19;1630824;86;25837;-66
2021/12/20 01:45:27;;;;;;;1.57;0.70;;;;;;;2.78;75.90;100129.84;1635876;87;27450;-66
2021/12/20 01:48:06;;;;;;;0.60;0.42;;;;;;;2.72;75.68;100118.31;1637006;85;25787;-66
2021/12/20 01:53:04;;;;;;;0.50;0.50;;;;;;;2.64;75.36;100128.59;1624097;86;26115;-66
2021/12/20 01:55:32;;;;;;;2.85;0.57;;;;;;;2.65;75.29;100141.77;1638901;86;27346;-65
2021/12/20 01:57:59;;;;;;;1.00;0.60;;;;;;;2.66;75.19;100130.64;1651358;86;28209;-66
2021/12/20 02:00:29;;;;;;;0.68;0.68;;;;;;;2.70;75.23;100134.81;1640315;86;26454;-66
2021/12/20 02:03:00;;;;;;;0.90;0.60;;;;;;;2.73;75.38;100139.94;1664253;86;25786;-66
2021/12/20 02:05:52;;;;;;;0.60;0.60;;;;;;;2.66;74.94;100151.89;1644146;85;26495;-65
2021/12/20 02:08:02;;;;;;;0.55;0.50;;;;;;;2.60;75.01;100157.62;1672439;84;25962;-66
2021/12/20 02:10:34;;;;;;;0.50;0.47;;;;;;;2.55;75.11;100151.77;1657829;85;27517;-66
2021/12/20 02:13:01;;;;;;;0.72;0.70;;;;;;;2.53;75.11;100151.00;1639923;86;25889;-66
2021/12/20 02:15:28;;;;;;;0.72;0.72;;;;;;;2.53;75.38;100165.61;1645354;86;25799;-66
2021/12/20 02:17:55;;;;;;;0.37;0.37;;;;;;;2.53;75.18;100153.66;1639239;86;26097;-65
2021/12/20 02:20:29;;;;;;;2.98;1.45;;;;;;;2.53;75.13;100165.61;1635060;85;25891;-66
2021/12/20 02:22:58;;;;;;;1.95;0.88;;;;;;;2.53;75.08;100160.30;1632654;86;27491;-66
2021/12/20 02:25:29;;;;;;;1.87;1.20;;;;;;;2.47;75.67;100171.67;1663152;86;25946;-65
2021/12/20 02:27:59;;;;;;;1.80;0.90;;;;;;;2.33;76.00;100171.23;1650817;86;25531;-66
2021/12/20 02:38:33;;;;;;;2.15;1.20;;;;;;;2.03;77.03;100178.88;1651964;85;25866;-65
2021/12/20 02:41:11;;;;;;;1.30;1.20;;;;;;;2.01;76.93;100174.13;1679967;84;25746;-66
2021/12/20 02:43:39;;;;;;;3.00;1.10;;;;;;;2.01;76.87;100171.97;1637032;85;26160;-65
2021/12/20 02:46:11;;;;;;;1.47;1.05;;;;;;;1.94;76.91;100178.58;1642897;85;25933;-65
2021/12/20 02:48:34;;;;;;;8.65;1.30;;;;;;;1.92;76.76;100184.48;1644633;86;27466;-65
2021/12/20 02:51:01;;;;;;;1.17;1.05;;;;;;;1.86;76.65;100183.89;1657589;85;25796;-66
2021/12/20 02:53:28;;;;;;;3.52;1.10;;;;;;;1.82;76.56;100179.74;1637788;86;25789;-66
2021/12/20 02:55:55;;;;;;;2.17;1.02;;;;;;;1.79;76.33;100183.06;1644910;86;26944;-66
2021/12/20 02:58:21;;;;;;;1.65;1.15;;;;;;;1.79;76.07;100176.43;1643110;86;25883;-66
2021/12/20 03:00:48;;;;;;;3.52;1.10;;;;;;;1.75;76.14;100186.34;1641316;86;27460;-65
2021/12/20 03:03:17;;;;;;;1.05;0.95;;;;;;;1.74;75.86;100187.31;1643926;86;25928;-66
2021/12/20 03:05:44;;;;;;;2.55;1.30;;;;;;;1.69;76.03;100183.63;1641500;86;26477;-66
2021/12/20 03:08:11;;;;;;;1.72;1.37;;;;;;;1.63;75.98;100194.58;1645305;85;26081;-65
2021/12/20 03:10:41;;;;;;;4.40;1.30;;;;;;;1.59;76.02;100202.81;1641755;86;25952;-65
2021/12/20 03:13:07;;;;;;;2.35;1.20;;;;;;;1.56;76.07;100205.18;1642598;85;27501;-65
2021/12/20 03:15:34;;;;;;;1.52;0.78;;;;;;;1.48;75.85;100208.77;1634669;87;26233;-66
2021/12/20 03:18:04;;;;;;;1.40;1.22;;;;;;;1.51;75.86;100201.48;1628690;87;25861;-66
2021/12/20 03:20:31;;;;;;;1.75;1.10;;;;;;;1.52;75.73;100203.19;1631975;87;26312;-65
2021/12/20 03:22:58;;;;;;;0.80;0.80;;;;;;;1.52;75.78;100210.30;1615820;86;25861;-65
2021/12/20 03:25:25;;;;;;;3.65;1.10;;;;;;;1.52;75.49;100211.14;1634923;86;27490;-66
2021/12/20 03:27:53;;;;;;;1.45;1.20;;;;;;;1.58;75.44;100217.01;1625764;87;25566;-65
2021/12/20 03:30:21;;;;;;;2.22;0.98;;;;;;;1.53;75.47;100218.16;1634884;87;25787;-65
2021/12/20 03:32:48;;;;;;;1.22;0.90;;;;;;;1.52;75.36;100218.25;1634569;87;26838;-64
2021/12/20 03:35:15;;;;;;;1.37;1.05;;;;;;;1.50;75.60;100219.65;1634662;87;25846;-66
2021/12/20 03:37:45;;;;;;;0.80;0.70;;;;;;;1.46;75.69;100219.92;1627749;86;28211;-65
2021/12/20 03:40:13;;;;;;;1.87;0.80;;;;;;;1.41;75.72;100232.12;1637534;85;25979;-66
2021/12/20 03:42:45;;;;;;;1.50;0.93;;;;;;;1.44;75.78;100231.08;1646065;85;26090;-65
2021/12/20 03:45:14;;;;;;;3.75;0.80;;;;;;;1.44;75.79;100226.66;1647425;86;26109;-65
2021/12/20 03:47:46;;;;;;;1.80;1.70;;;;;;;1.49;75.54;100235.66;1622261;86;25762;-65
2021/12/20 03:50:15;;;;;;;3.80;1.15;;;;;;;1.49;75.43;100237.83;1659623;85;27506;-65
2021/12/20 03:52:42;;;;;;;8.73;1.95;;;;;;;1.50;75.67;100234.72;1666623;84;25769;-65
2021/12/20 03:55:12;;;;;;;8.50;5.00;;;;;;;1.52;75.37;100232.84;1649079;86;25917;-65
2021/12/20 03:57:38;;;;;;;12.25;7.60;;;;;;;1.49;75.18;100230.36;1675198;85;26057;-65
2021/12/20 04:00:10;;;;;;;6.78;3.95;;;;;;;1.47;75.07;100236.22;1675050;85;25719;-64
2021/12/20 04:02:44;;;;;;;4.80;2.35;;;;;;;1.49;75.06;100235.17;1671784;84;28207;-65
2021/12/20 04:05:13;;;;;;;1.42;1.17;;;;;;;1.52;75.00;100232.84;1673923;85;25784;-65
2021/12/20 04:07:40;;;;;;;1.77;1.15;;;;;;;1.52;74.89;100233.67;1646491;86;26172;-65
2021/12/20 04:10:09;;;;;;;3.10;1.52;;;;;;;1.53;74.70;100226.11;1643764;85;26053;-65
2021/12/20 04:12:39;;;;;;;1.45;1.35;;;;;;;1.55;74.68;100231.30;1645598;85;25891;-65
2021/12/20 04:15:10;;;;;;;2.22;1.40;;;;;;;1.51;74.59;100239.08;1656352;83;45552;-65
2021/12/20 04:17:37;;;;;;;4.20;2.10;;;;;;;1.47;74.58;100246.82;1637886;86;25875;-65
2021/12/20 04:20:06;;;;;;;2.80;1.50;;;;;;;1.50;74.78;100246.64;1658218;84;25839;-64
2021/12/20 04:22:33;;;;;;;4.42;1.80;;;;;;;1.58;74.94;100238.22;1662661;84;26092;-64
2021/12/20 04:25:04;;;;;;;4.62;2.37;;;;;;;1.60;74.81;100237.66;1660559;85;25760;-65
2021/12/20 04:27:30;;;;;;;2.92;2.12;;;;;;;1.55;74.81;100242.78;1663822;84;27456;-65
2021/12/20 04:29:57;;;;;;;3.85;2.15;;;;;;;1.52;74.76;100252.23;1664222;84;25930;-66
2021/12/20 04:32:24;;;;;;;4.28;2.00;;;;;;;1.44;74.77;100246.53;1686102;84;25553;-64
2021/12/20 04:34:51;;;;;;;3.15;1.52;;;;;;;1.43;74.97;100236.03;1661985;84;26740;-65
2021/12/20 04:37:18;;;;;;;4.17;2.20;;;;;;;1.45;74.90;100241.62;1676934;85;25789;-64
2021/12/20 04:39:45;;;;;;;8.50;3.98;;;;;;;1.51;75.05;100246.55;1675221;84;27559;-65
2021/12/20 04:42:14;;;;;;;3.50;1.95;;;;;;;1.52;74.85;100247.41;1667572;83;25753;-65
2021/12/20 04:44:42;;;;;;;2.90;1.65;;;;;;;1.54;74.98;100247.70;1634585;87;25790;-65
2021/12/20 04:47:09;;;;;;;3.52;1.98;;;;;;;1.56;74.86;100256.42;1639772;86;26124;-66
2021/12/20 04:49:38;;;;;;;3.72;1.95;;;;;;;1.51;74.69;100269.08;1637065;86;25721;-65
2021/12/20 04:52:07;;;;;;;5.22;1.52;;;;;;;1.51;74.56;100267.75;1638110;85;27513;-65
2021/12/20 04:54:35;;;;;;;3.98;1.90;;;;;;;1.44;74.51;100264.22;1636569;86;26647;-65
2021/12/20 04:57:04;;;;;;;2.02;1.30;;;;;;;1.38;74.41;100278.22;1633417;86;25818;-66
2021/12/20 04:59:30;;;;;;;3.77;1.90;;;;;;;1.38;74.38;100278.70;1678504;83;26093;-64
2021/12/20 05:01:57;;;;;;;7.72;2.47;;;;;;;1.36;74.35;100281.91;1665833;84;25942;-65
2021/12/20 05:04:26;;;;;;;5.50;2.62;;;;;;;1.36;74.39;100272.64;1670544;84;28195;-64
2021/12/20 05:06:52;;;;;;;3.75;2.30;;;;;;;1.35;74.49;100268.27;1655077;84;25869;-65
2021/12/20 05:09:20;;;;;;;15.00;5.95;;;;;;;1.24;74.25;100275.05;1645860;85;25742;-64
2021/12/20 05:11:50;;;;;;;9.05;4.35;;;;;;;1.15;74.29;100282.69;1681770;84;25766;-65
2021/12/20 05:14:19;;;;;;;5.97;2.83;;;;;;;1.04;74.21;100279.30;1678347;84;25749;-65
2021/12/20 05:16:46;;;;;;;6.05;3.77;;;;;;;0.96;74.28;100281.53;1648465;85;28493;-65
2021/12/20 05:19:15;;;;;;;9.88;3.02;;;;;;;0.89;74.35;100281.05;1636161;85;25737;-64
2021/12/20 05:21:42;;;;;;;10.63;5.83;;;;;;;0.89;74.51;100291.16;1622058;87;25785;-65
2021/12/20 05:24:08;;;;;;;11.00;3.52;;;;;;;0.84;74.35;100286.59;1683476;84;26087;-64
2021/12/20 05:26:37;;;;;;;6.87;4.40;;;;;;;0.79;74.43;100287.31;1665140;83;25823;-64
2021/12/20 05:29:07;;;;;;;9.15;4.12;;;;;;;0.84;74.98;100289.25;1648547;84;27547;-64
2021/12/20 05:31:34;;;;;;;5.45;2.92;;;;;;;0.85;74.78;100280.33;1657656;83;25880;-64
2021/12/20 05:34:01;;;;;;;7.22;3.62;;;;;;;0.84;74.75;100286.59;1658640;83;25717;-65
2021/12/20 05:36:30;;;;;;;9.63;3.75;;;;;;;0.90;74.71;100286.70;1665157;84;26087;-64
2021/12/20 05:38:57;;;;;;;10.32;3.95;;;;;;;0.96;74.85;100287.70;1660451;84;25510;-66
2021/12/20 05:41:23;;;;;;;9.53;3.92;;;;;;;1.00;74.74;100292.35;1660372;84;27487;-65
2021/12/20 05:43:50;;;;;;;8.58;4.08;;;;;;;1.04;74.77;100291.22;1675511;84;25891;-65
2021/12/20 05:46:17;;;;;;;12.40;5.65;;;;;;;1.06;74.62;100295.97;1692391;83;25884;-63
2021/12/20 05:48:47;;;;;;;12.13;5.95;;;;;;;1.00;74.05;100295.84;1653234;84;26116;-64
2021/12/20 05:51:14;;;;;;;13.45;6.62;;;;;;;0.93;74.08;100304.63;1648212;85;25871;-66
2021/12/20 05:53:40;;;;;;;13.08;6.55;;;;;;;0.85;73.89;100302.84;1656647;83;27544;-65
2021/12/20 05:56:07;;;;;;;13.08;4.80;;;;;;;0.80;73.98;100302.26;1624588;87;25791;-65
2021/12/20 05:58:34;;;;;;;13.40;5.42;;;;;;;0.71;74.33;100310.70;1634771;85;25772;-65
2021/12/20 06:01:04;;;;;;;19.15;7.60;;;;;;;0.70;74.52;100309.87;1631976;87;28378;-66
2021/12/20 06:03:32;;;;;;;19.52;6.00;;;;;;;0.66;74.44;100308.80;1631292;87;25777;-65
2021/12/20 06:06:00;;;;;;;12.73;4.45;;;;;;;0.71;74.78;100312.03;1646334;85;27504;-65
2021/12/20 06:08:27;;;;;;;6.78;3.40;;;;;;;0.77;74.86;100315.20;1630271;87;25917;-66
2021/12/20 06:10:54;;;;;;;8.73;4.53;;;;;;;0.82;74.65;100316.27;1640982;85;25761;-65
2021/12/20 06:13:20;;;;;;;23.00;6.40;;;;;;;0.85;74.55;100314.77;1621429;87;26819;-65
2021/12/20 06:15:47;;;;;;;9.90;4.80;;;;;;;0.90;74.58;100325.09;1628282;87;25754;-66
2021/12/20 06:18:17;;;;;;;7.37;5.15;;;;;;;0.99;74.72;100321.10;1637140;87;27607;-66
2021/12/20 06:20:44;;;;;;;6.83;3.40;;;;;;;1.04;74.35;100323.01;1623567;85;26005;-66
2021/12/20 06:23:14;;;;;;;8.90;4.62;;;;;;;1.05;74.09;100331.34;1642837;85;25867;-65
2021/12/20 06:25:41;;;;;;;16.42;7.05;;;;;;;1.03;73.91;100330.59;1648152;86;26107;-66
2021/12/20 06:28:08;;;;;;;17.02;5.42;;;;;;;0.96;73.75;100330.08;1649244;86;25790;-65
2021/12/20 06:30:38;;;;;;;9.48;5.15;;;;;;;0.86;73.72;100335.02;1644385;86;27886;-67
2021/12/20 06:33:06;;;;;;;7.10;3.98;;;;;;;0.75;73.95;100333.45;1606143;87;25899;-66
2021/12/20 06:35:33;;;;;;;7.08;3.95;;;;;;;0.65;74.28;100337.05;1639319;84;25706;-66
2021/12/20 06:38:02;;;;;;;7.58;4.25;;;;;;;0.61;74.21;100336.84;1657812;85;25756;-66
2021/12/20 06:40:32;;;;;;;10.28;4.10;;;;;;;0.61;74.25;100341.66;1669754;84;25936;-67
2021/12/20 06:42:59;;;;;;;9.45;4.40;;;;;;;0.64;74.47;100349.05;1654758;85;28247;-67
2021/12/20 06:45:33;;;;;;;15.20;5.87;;;;;;;0.58;74.18;100339.16;1649780;84;25773;-67
2021/12/20 06:47:56;;;;;;;8.28;5.47;;;;;;;0.54;74.19;100344.25;1672997;84;25734;-66
2021/12/20 06:50:24;;;;;;;7.33;4.65;;;;;;;0.53;74.35;100349.64;1666315;85;26080;-67
2021/12/20 06:52:50;;;;;;;10.48;5.10;;;;;;;0.52;74.40;100348.77;1661810;85;25801;-67
2021/12/20 06:55:19;;;;;;;8.48;4.60;;;;;;;0.49;74.24;100348.08;1652766;85;26762;-67
2021/12/20 06:57:48;;;;;;;8.43;3.87;;;;;;;0.46;74.24;100357.05;1675921;83;25854;-67
2021/12/20 07:00:16;;;;;;;10.55;4.53;;;;;;;0.41;74.29;100365.67;1677529;84;25760;-67
2021/12/20 07:02:44;;;;;;;9.48;5.00;;;;;;;0.40;74.34;100370.13;1674615;83;26061;-67
2021/12/20 07:05:12;;;;;;;8.05;4.58;;;;;;;0.42;74.33;100370.91;1666363;85;25825;-67
2021/12/20 07:07:41;;;;;;;20.90;8.75;;;;;;;0.50;74.11;100373.13;1671040;85;28207;-67
2021/12/20 07:10:10;;;;;;;13.22;5.75;;;;;;;0.55;73.99;100376.41;1672886;83;25521;-67
2021/12/20 07:12:38;;;;;;;14.30;5.95;;;;;;;0.55;73.72;100383.02;1642406;85;25847;-67
2021/12/20 07:15:11;;;;;;;9.43;5.22;;;;;;;0.58;73.66;100384.16;1666348;84;26096;-67
2021/12/20 07:17:37;;;;;;;9.40;3.60;;;;;;;0.64;73.62;100379.02;1676628;84;25942;-67
2021/12/20 07:20:07;;;;;;;9.73;5.67;;;;;;;0.72;73.34;100370.67;1677349;85;27481;-66
2021/12/20 07:22:37;;;;;;;13.20;5.45;;;;;;;0.76;73.25;100374.88;1662641;84;25829;-67
2021/12/20 07:25:05;;;;;;;44.75;20.30;;;;;;;0.81;73.04;100382.58;1677625;84;25719;-67
2021/12/20 07:27:32;;;;;;;14.55;7.20;;;;;;;0.78;72.88;100381.79;1671146;84;26096;-66
2021/12/20 07:29:59;;;;;;;12.13;4.92;;;;;;;0.81;73.04;100375.95;1653232;85;25809;-67
2021/12/20 07:32:30;;;;;;;8.75;5.05;;;;;;;0.82;72.99;100384.25;1662433;84;27438;-67
2021/12/20 07:34:57;;;;;;;8.13;4.90;;;;;;;0.86;72.83;100376.55;1659562;85;25735;-67
2021/12/20 07:37:27;;;;;;;11.83;4.97;;;;;;;0.90;72.81;100381.59;1640196;86;25701;-67
2021/12/20 07:39:54;;;;;;;14.83;6.45;;;;;;;0.96;72.73;100384.38;1647804;86;26103;-67
2021/12/20 07:42:21;;;;;;;6.47;4.45;;;;;;;1.04;72.54;100374.66;1637209;85;25854;-67
2021/12/20 07:44:48;;;;;;;10.08;4.62;;;;;;;1.10;72.23;100380.97;1644269;86;27496;-67
2021/12/20 07:47:16;;;;;;;10.80;5.80;;;;;;;1.20;71.96;100389.25;1676560;84;25847;-66
2021/12/20 07:49:43;;;;;;;14.18;6.60;;;;;;;1.29;71.53;100377.30;1638116;85;25853;-67
2021/12/20 07:52:10;;;;;;;11.85;5.37;;;;;;;1.38;71.06;100379.43;1641577;86;26127;-67
2021/12/20 07:54:37;;;;;;;10.40;5.65;;;;;;;1.50;71.18;100389.80;1645144;86;25717;-66
2021/12/20 07:57:05;;;;;;;11.57;5.87;;;;;;;1.62;70.23;100390.89;1628550;86;27406;-67
2021/12/20 07:59:35;;;;;;;9.43;3.77;;;;;;;1.73;69.26;100392.45;1614744;86;25864;-65
2021/12/20 08:02:05;;;;;;;11.08;4.60;;;;;;;1.83;69.47;100385.68;1660248;85;25869;-66
2021/12/20 08:04:32;;;;;;;8.43;4.22;;;;;;;1.94;68.69;100385.05;1616731;85;26193;-66
2021/12/20 08:06:59;;;;;;;6.83;3.02;;;;;;;2.02;68.36;100381.91;1633215;85;27361;-66
2021/12/20 08:09:26;;;;;;;10.40;4.10;;;;;;;2.07;67.25;100395.78;1635596;85;27466;-67
2021/12/20 08:11:55;;;;;;;9.20;4.30;;;;;;;2.22;67.07;100390.50;1632078;86;25910;-66
2021/12/20 08:14:22;;;;;;;15.55;6.05;;;;;;;2.37;66.28;100384.74;1627391;88;25801;-67
2021/12/20 08:16:49;;;;;;;15.53;6.30;;;;;;;2.64;66.29;100384.88;1629641;84;26082;-66
2021/12/20 08:19:16;;;;;;;17.17;7.28;;;;;;;2.88;64.95;100381.62;1662266;85;25806;-67
2021/12/20 08:21:43;;;;;;;13.25;6.05;;;;;;;2.64;65.38;100392.35;1665929;84;29678;-67
2021/12/20 08:24:09;;;;;;;13.58;5.45;;;;;;;2.48;65.83;100405.70;1686986;84;25743;-67
2021/12/20 08:26:36;;;;;;;11.15;5.40;;;;;;;2.39;65.77;100404.09;1662870;84;25816;-66
2021/12/20 08:29:08;;;;;;;13.08;5.25;;;;;;;2.53;64.69;100405.91;1678393;84;26982;-67
2021/12/20 08:31:36;;;;;;;6.08;2.70;;;;;;;2.44;65.41;100404.20;1672638;85;25783;-67
2021/12/20 08:34:04;;;;;;;7.37;3.30;;;;;;;2.35;65.28;100410.06;1618186;86;27544;-67
2021/12/20 08:36:32;;;;;;;7.53;3.80;;;;;;;2.35;65.32;100410.06;1637112;85;25931;-65
2021/12/20 08:38:58;;;;;;;9.65;5.10;;;;;;;2.17;65.18;100418.19;1663777;84;25738;-66
2021/12/20 08:41:25;;;;;;;7.15;3.17;;;;;;;2.12;65.72;100411.44;1665354;85;26109;-66
2021/12/20 08:43:52;;;;;;;10.43;3.65;;;;;;;2.12;66.07;100404.80;1650594;85;25502;-66
2021/12/20 08:46:19;;;;;;;7.28;2.90;;;;;;;2.71;65.80;100399.48;1652444;86;27574;-66
2021/12/20 08:48:50;;;;;;;12.63;4.10;;;;;;;3.75;64.93;100392.41;1650611;86;25821;-66
2021/12/20 08:51:17;;;;;;;7.15;3.45;;;;;;;3.81;62.19;100402.30;1646765;85;25775;-67
2021/12/20 08:53:45;;;;;;;10.18;3.37;;;;;;;4.39;61.76;100398.34;1652546;85;26199;-67
2021/12/20 08:56:15;;;;;;;5.55;3.52;;;;;;;4.70;60.15;100404.69;1642105;85;25474;-67
2021/12/20 08:58:45;;;;;;;6.42;3.10;;;;;;;4.44;60.68;100404.69;1678020;85;28155;-66
2021/12/20 09:01:14;;;;;;;7.00;2.90;;;;;;;4.41;61.26;100404.89;1650912;84;26046;-67
2021/12/20 09:03:41;;;;;;;4.90;2.92;;;;;;;4.20;59.85;100396.56;1628813;86;25772;-66
2021/12/20 09:06:08;;;;;;;8.85;3.37;;;;;;;4.85;58.69;100406.76;1659185;85;26167;-66
2021/12/20 09:08:35;;;;;;;7.87;2.98;;;;;;;5.41;57.46;100400.14;1630821;86;25738;-67
2021/12/20 09:11:02;;;;;;;7.70;3.80;;;;;;;5.74;55.79;100398.11;1660154;85;27505;-67
2021/12/20 09:13:29;;;;;;;9.83;2.75;;;;;;;6.34;54.54;100394.12;1662498;84;25805;-67
2021/12/20 09:15:59;;;;;;;19.90;9.15;;;;;;;7.03;54.22;100387.00;1660875;85;25828;-67
2021/12/20 09:18:27;;;;;;;4.65;2.52;;;;;;;7.18;50.40;100392.45;1659331;85;26273;-67
2021/12/20 09:20:56;;;;;;;3.92;2.02;;;;;;;7.58;51.72;100382.13;1650878;86;26002;-67
2021/12/20 09:23:26;;;;;;;5.92;2.50;;;;;;;8.27;52.26;100387.06;1649550;85;27525;-66
2021/12/20 09:25:52;;;;;;;4.40;2.50;;;;;;;8.30;52.28;100384.61;1660653;85;25763;-67
2021/12/20 09:28:19;;;;;;;5.45;2.77;;;;;;;7.83;48.64;100395.21;1662817;85;26479;-67
2021/12/20 09:30:49;;;;;;;6.30;2.27;;;;;;;7.43;50.33;100393.63;1661948;85;26118;-68
2021/12/20 09:33:16;;;;;;;7.60;2.33;;;;;;;6.97;50.49;100391.02;1637474;84;26551;-67
2021/12/20 09:35:44;;;;;;;6.92;3.10;;;;;;;6.56;51.55;100405.80;1658078;84;27482;-67
2021/12/20 09:38:17;;;;;;;6.08;2.75;;;;;;;6.05;52.47;100396.34;1652142;84;25809;-68
2021/12/20 09:41:13;;;;;;;12.30;3.87;;;;;;;5.67;53.23;100400.87;1635125;84;25864;-67
2021/12/20 09:43:16;;;;;;;7.87;2.92;;;;;;;5.43;54.12;100397.72;1663891;85;26107;-67
2021/12/20 09:45:45;;;;;;;12.25;5.83;;;;;;;5.15;54.72;100397.55;1657765;85;25754;-67
2021/12/20 09:48:12;;;;;;;11.35;5.03;;;;;;;4.92;55.50;100402.69;1645569;85;27597;-68
2021/12/20 09:50:42;;;;;;;8.60;4.00;;;;;;;4.73;56.46;100388.49;1660571;84;25802;-66
2021/12/20 09:53:09;;;;;;;11.83;5.00;;;;;;;4.55;57.31;100407.93;1649222;86;25841;-66
2021/12/20 09:55:37;;;;;;;13.00;3.52;;;;;;;4.35;58.00;100402.16;1654398;85;26817;-66
2021/12/20 09:58:06;;;;;;;8.25;3.60;;;;;;;4.20;58.48;100407.21;1644787;86;25487;-67
2021/12/20 10:00:34;;;;;;;8.45;3.50;;;;;;;4.11;59.10;100410.50;1645289;85;27461;-67
2021/12/20 10:03:04;;;;;;;11.60;3.33;;;;;;;4.10;59.50;100411.45;1656133;85;26065;-67
2021/12/20 10:05:34;;;;;;;9.93;4.60;;;;;;;4.03;59.80;100412.36;1649200;86;25866;-65
2021/12/20 10:08:12;;;;;;;49.67;26.62;;;;;;;3.96;59.94;100407.92;1663069;84;26084;-66
2021/12/20 10:10:48;;;;;;;7.40;3.50;;;;;;;3.95;60.16;100402.67;1663915;84;25878;-67
2021/12/20 10:13:29;;;;;;;6.30;3.35;;;;;;;3.86;60.15;100394.35;1665431;85;27494;-67
2021/12/20 10:15:58;;;;;;;5.47;3.55;;;;;;;3.86;60.69;100402.83;1665151;85;25767;-67
2021/12/20 10:18:28;;;;;;;21.23;7.97;;;;;;;3.87;60.89;100397.39;1667167;85;25882;-67
2021/12/20 10:20:59;;;;;;;6.85;3.72;;;;;;;3.88;61.16;100399.59;1666381;85;26091;-66
2021/12/20 10:23:30;;;;;;;4.97;3.33;;;;;;;3.90;60.96;100397.66;1665895;85;25807;-67
2021/12/20 10:26:01;;;;;;;8.85;3.45;;;;;;;3.84;60.58;100406.93;1661061;84;28214;-68
2021/12/20 10:28:35;;;;;;;7.35;3.37;;;;;;;3.80;60.61;100412.06;1662818;85;25791;-67
2021/12/20 10:31:10;;;;;;;5.75;2.90;;;;;;;3.83;60.57;100405.68;1662543;85;25550;-67
2021/12/20 10:33:39;;;;;;;8.10;3.08;;;;;;;3.77;60.71;100413.59;1657659;85;26486;-67
2021/12/20 10:36:13;;;;;;;6.08;3.33;;;;;;;3.74;60.51;100411.99;1660997;85;25890;-67
2021/12/20 10:38:47;;;;;;;2.87;2.50;;;;;;;3.64;60.44;100420.19;1663167;85;27499;-67
2021/12/20 10:41:20;;;;;;;;;;;;;;;3.58;60.62;100418.81;1643991;85;25970;-67
2021/12/20 10:43:55;;;;;;;9.13;3.33;;;;;;;3.51;61.14;100415.31;1657360;85;25904;-67
2021/12/20 10:46:30;;;;;;;6.47;3.22;;;;;;;3.43;60.78;100408.69;1622446;85;26025;-67
2021/12/20 10:49:14;;;;;;;5.58;2.52;;;;;;;3.40;60.84;100403.56;1666784;84;25843;-68
2021/12/20 10:51:42;;;;;;;4.20;2.47;;;;;;;3.52;61.01;100403.23;1660984;84;28132;-67
2021/12/20 10:54:15;;;;;;;5.15;3.30;;;;;;;3.61;60.92;100400.47;1661658;84;25959;-66
2021/12/20 10:57:01;;;;;;;5.40;2.42;;;;;;;3.68;60.64;100398.23;1675593;84;25843;-67
2021/12/20 10:59:31;;;;;;;5.97;3.15;;;;;;;3.66;60.65;100396.17;1671470;84;26142;-67
2021/12/20 11:04:58;;;;;;;7.30;3.72;;;;;;;3.59;61.01;100397.88;1674774;84;27569;-67
2021/12/20 11:09:56;;;;;;;8.28;2.67;;;;;;;3.71;60.28;100402.03;1681164;84;25652;-65
2021/12/20 11:12:32;;;;;;;5.53;2.58;;;;;;;3.83;58.59;100399.03;1643059;85;26125;-66
2021/12/20 11:15:04;;;;;;;11.10;3.20;;;;;;;3.93;58.25;100399.29;1642277;85;25708;-68
2021/12/20 11:17:35;;;;;;;4.00;2.90;;;;;;;3.99;56.70;100402.86;1655011;85;27488;-66
2021/12/20 11:20:03;;;;;;;7.80;3.20;;;;;;;4.09;57.13;100409.28;1634153;86;25805;-67
2021/12/20 11:22:34;;;;;;;29.45;14.47;;;;;;;4.20;56.66;100396.09;1642579;84;25673;-68
2021/12/20 11:25:07;;;;;;;12.37;5.20;;;;;;;4.21;56.94;100407.59;1664113;85;25936;-67
2021/12/20 11:27:39;;;;;;;13.32;3.87;;;;;;;4.14;56.55;100410.30;1668214;84;25729;-67
2021/12/20 11:30:16;;;;;;;13.03;4.00;;;;;;;4.02;57.11;100400.84;1661041;84;27483;-68
2021/12/20 11:32:45;;;;;;;13.68;4.50;;;;;;;3.96;57.67;100403.05;1662235;85;25741;-68
2021/12/20 11:35:18;;;;;;;10.93;3.92;;;;;;;3.87;57.71;100407.20;1670752;84;26477;-67
2021/12/20 11:37:46;;;;;;;9.58;4.25;;;;;;;3.78;57.94;100403.33;1660456;85;26736;-68
2021/12/20 11:40:17;;;;;;;15.60;4.20;;;;;;;3.73;58.31;100405.45;1632521;84;25841;-66
2021/12/20 11:42:44;;;;;;;10.08;2.87;;;;;;;3.79;58.71;100411.69;1649993;85;29747;-68
2021/12/20 11:45:15;;;;;;;9.80;2.85;;;;;;;3.91;58.47;100398.04;1660007;85;25901;-67
2021/12/20 11:48:13;;;;;;;9.00;3.17;;;;;;;3.99;57.96;100401.53;1661727;84;26410;-67
2021/12/20 11:50:43;;;;;;;10.30;3.95;;;;;;;3.93;57.03;100416.59;1693326;84;26094;-66
2021/12/20 11:53:14;;;;;;;8.25;2.62;;;;;;;3.91;57.84;100412.22;1683700;84;25953;-66
2021/12/20 11:55:51;;;;;;;13.38;3.80;;;;;;;3.93;57.24;100413.44;1638009;87;27515;-67
2021/12/20 11:58:29;;;;;;;10.05;3.70;;;;;;;3.92;57.04;100403.74;1644280;86;25841;-67